createdAt,value
2023-01-25T00:00:07.974Z,100498.02
2023-01-25T00:01:28.619Z,100493.95
2023-01-25T00:02:30.581Z,100493.73
2023-01-25T00:03:32.748Z,100489.17
2023-01-25T00:04:34.717Z,100483.88
2023-01-25T00:05:36.850Z,100481.73
2023-01-25T00:06:38.913Z,100478.63
2023-01-25T00:07:40.865Z,100474.60
2023-01-25T00:08:42.813Z,100476.60
2023-01-25T00:09:44.773Z,100474.20
2023-01-25T00:10:51.630Z,100475.36
2023-01-25T00:11:56.374Z,100470.16
2023-01-25T00:12:58.622Z,100470.70
2023-01-25T00:14:00.725Z,100470.71
2023-01-25T00:15:02.695Z,100472.51
2023-01-25T00:16:05.396Z,100474.62
2023-01-25T00:17:07.359Z,100479.35
2023-01-25T00:18:09.463Z,100476.78
2023-01-25T00:19:11.982Z,100479.98
2023-01-25T00:20:14.323Z,100485.22
2023-01-25T00:21:20.348Z,100485.13
2023-01-25T00:22:22.375Z,100487.85
2023-01-25T00:23:24.231Z,100493.98
2023-01-25T00:24:26.536Z,100496.85
2023-01-25T00:25:28.618Z,100499.56
2023-01-25T00:26:32.606Z,100495.89
2023-01-25T00:27:34.552Z,100494.62
2023-01-25T00:28:36.998Z,100494.31
2023-01-25T00:29:39.453Z,100495.45
2023-01-25T00:30:41.763Z,100497.70
2023-01-25T00:31:59.132Z,100496.64
2023-01-25T00:33:46.182Z,100493.86
2023-01-25T00:34:50.198Z,100490.89
2023-01-25T00:35:57.015Z,100489.13
2023-01-25T00:37:43.709Z,100487.95
2023-01-25T00:38:47.865Z,100482.80
2023-01-25T00:39:50.012Z,100484.27
2023-01-25T00:40:51.870Z,100477.88
2023-01-25T00:41:54.799Z,100480.07
2023-01-25T00:42:57.130Z,100485.00
2023-01-25T00:43:59.493Z,100480.04
2023-01-25T00:45:01.879Z,100483.41
2023-01-25T00:46:04.309Z,100484.94
2023-01-25T00:47:06.778Z,100486.80
2023-01-25T00:48:09.924Z,100489.59
2023-01-25T00:49:24.959Z,100487.71
2023-01-25T00:50:27.015Z,100489.33
2023-01-25T00:51:29.108Z,100487.17
2023-01-25T00:52:31.200Z,100483.02
2023-01-25T00:53:34.740Z,100485.46
2023-01-25T00:54:36.851Z,100483.17
2023-01-25T00:55:38.784Z,100486.56
2023-01-25T00:56:40.864Z,100488.31
2023-01-25T00:57:42.693Z,100489.36
2023-01-25T00:58:44.808Z,100484.86
2023-01-25T00:59:47.653Z,100482.23
2023-01-25T01:00:49.996Z,100480.37
2023-01-25T01:01:54.592Z,100485.13
2023-01-25T01:02:56.547Z,100485.31
2023-01-25T01:03:59.013Z,100484.20
2023-01-25T01:05:01.048Z,100484.16
2023-01-25T01:06:07.516Z,100480.42
2023-01-25T01:07:12.582Z,100481.55
2023-01-25T01:08:15.989Z,100473.30
2023-01-25T01:09:19.203Z,100474.95
2023-01-25T01:10:21.136Z,100476.05
2023-01-25T01:11:23.393Z,100476.02
2023-01-25T01:12:26.242Z,100471.08
2023-01-25T01:13:29.827Z,100471.21
2023-01-25T01:14:32.373Z,100468.87
2023-01-25T01:15:37.437Z,100465.64
2023-01-25T01:16:39.749Z,100468.42
2023-01-25T01:17:42.148Z,100464.55
2023-01-25T01:18:46.056Z,100460.99
2023-01-25T01:19:48.722Z,100459.71
2023-01-25T01:20:52.145Z,100459.98
2023-01-25T01:21:56.688Z,100460.14
2023-01-25T01:22:58.898Z,100459.30
2023-01-25T01:24:01.202Z,100461.08
2023-01-25T01:25:04.070Z,100460.48
2023-01-25T01:26:09.068Z,100457.17
2023-01-25T01:27:11.323Z,100462.03
2023-01-25T01:28:13.641Z,100460.95
2023-01-25T01:29:15.782Z,100458.19
2023-01-25T01:30:17.891Z,100461.28
2023-01-25T01:31:24.029Z,100462.23
2023-01-25T01:32:32.482Z,100461.36
2023-01-25T01:33:36.002Z,100464.59
2023-01-25T01:34:38.555Z,100462.16
2023-01-25T01:35:40.472Z,100461.63
2023-01-25T01:36:42.846Z,100460.60
2023-01-25T01:37:45.335Z,100458.33
2023-01-25T01:38:48.436Z,100454.23
2023-01-25T01:39:52.102Z,100457.04
2023-01-25T01:40:54.090Z,100459.58
2023-01-25T01:41:56.264Z,100459.25
2023-01-25T01:43:04.450Z,100455.92
2023-01-25T01:44:07.095Z,100457.35
2023-01-25T01:45:46.607Z,100461.62
2023-01-25T01:46:59.948Z,100460.65
2023-01-25T01:48:05.480Z,100460.24
2023-01-25T01:49:13.220Z,100459.02
2023-01-25T01:50:24.741Z,100459.48
2023-01-25T01:51:46.348Z,100455.55
2023-01-25T01:52:52.611Z,100453.92
2023-01-25T01:54:01.080Z,100454.66
2023-01-25T01:55:14.381Z,100458.11
2023-01-25T01:56:25.683Z,100458.63
2023-01-25T01:57:49.900Z,100457.90
2023-01-25T01:58:55.098Z,100457.06
2023-01-25T02:00:05.883Z,100455.50
2023-01-25T02:01:18.954Z,100450.85
2023-01-25T02:02:24.224Z,100453.70
2023-01-25T02:03:28.384Z,100452.59
2023-01-25T02:04:31.323Z,100448.94
2023-01-25T02:05:55.297Z,100447.02
2023-01-25T02:07:17.551Z,100442.30
2023-01-25T02:08:25.305Z,100446.67
2023-01-25T02:09:31.768Z,100445.25
2023-01-25T02:10:36.744Z,100440.86
2023-01-25T02:11:40.112Z,100442.96
2023-01-25T02:12:44.148Z,100438.01
2023-01-25T02:13:48.424Z,100437.19
2023-01-25T02:14:54.195Z,100435.88
2023-01-25T02:15:57.009Z,100432.78
2023-01-25T02:17:00.134Z,100432.23
2023-01-25T02:18:02.670Z,100430.63
2023-01-25T02:19:08.078Z,100427.04
2023-01-25T02:20:26.625Z,100427.23
2023-01-25T02:21:39.280Z,100420.02
2023-01-25T02:22:54.879Z,100419.44
2023-01-25T02:24:07.789Z,100419.70
2023-01-25T02:25:16.700Z,100420.95
2023-01-25T02:26:19.758Z,100418.01
2023-01-25T02:27:21.965Z,100418.60
2023-01-25T02:28:38.990Z,100415.02
2023-01-25T02:29:42.105Z,100417.89
2023-01-25T02:30:45.447Z,100413.20
2023-01-25T02:31:49.652Z,100419.50
2023-01-25T02:32:51.724Z,100418.92
2023-01-25T02:33:53.730Z,100422.80
2023-01-25T02:34:55.945Z,100423.08
2023-01-25T02:36:25.891Z,100424.50
2023-01-25T02:37:28.238Z,100419.25
2023-01-25T02:38:43.127Z,100419.62
2023-01-25T02:39:45.228Z,100418.55
2023-01-25T02:40:59.317Z,100418.34
2023-01-25T02:42:02.979Z,100418.85
2023-01-25T02:43:05.120Z,100421.77
2023-01-25T02:44:15.173Z,100420.09
2023-01-25T02:45:25.079Z,100424.06
2023-01-25T02:46:32.307Z,100422.63
2023-01-25T02:47:34.342Z,100420.75
2023-01-25T02:48:37.507Z,100420.61
2023-01-25T02:49:40.776Z,100424.04
2023-01-25T02:50:43.049Z,100421.38
2023-01-25T02:51:55.925Z,100418.65
2023-01-25T02:52:58.038Z,100419.33
2023-01-25T02:54:01.913Z,100421.37
2023-01-25T02:55:04.475Z,100416.38
2023-01-25T02:56:06.698Z,100418.31
2023-01-25T02:57:08.657Z,100416.61
2023-01-25T02:58:17.364Z,100412.36
2023-01-25T02:59:19.456Z,100409.38
2023-01-25T03:00:25.275Z,100409.91
2023-01-25T03:01:28.953Z,100407.27
2023-01-25T03:02:30.927Z,100408.27
2023-01-25T03:03:32.795Z,100402.69
2023-01-25T03:04:34.782Z,100401.71
2023-01-25T03:05:37.746Z,100395.27
2023-01-25T03:06:40.876Z,100392.21
2023-01-25T03:07:42.910Z,100393.48
2023-01-25T03:08:45.289Z,100391.15
2023-01-25T03:09:48.648Z,100392.98
2023-01-25T03:10:50.576Z,100391.09
2023-01-25T03:11:52.833Z,100388.33
2023-01-25T03:12:57.112Z,100388.48
2023-01-25T03:13:59.154Z,100389.83
2023-01-25T03:15:01.095Z,100390.52
2023-01-25T03:16:09.823Z,100388.86
2023-01-25T03:17:14.013Z,100385.64
2023-01-25T03:18:16.053Z,100389.74
2023-01-25T03:19:18.491Z,100389.05
2023-01-25T03:20:20.376Z,100387.52
2023-01-25T03:21:23.559Z,100384.97
2023-01-25T03:22:25.635Z,100382.82
2023-01-25T03:23:27.690Z,100385.19
2023-01-25T03:24:30.627Z,100384.42
2023-01-25T03:25:33.245Z,100387.64
2023-01-25T03:27:03.540Z,100386.36
2023-01-25T03:28:10.905Z,100385.16
2023-01-25T03:29:13.991Z,100383.21
2023-01-25T03:30:17.908Z,100384.20
2023-01-25T03:31:20.210Z,100384.70
2023-01-25T03:32:23.699Z,100382.71
2023-01-25T03:33:25.606Z,100386.33
2023-01-25T03:34:28.457Z,100388.02
2023-01-25T03:35:31.570Z,100383.02
2023-01-25T03:36:33.462Z,100382.35
2023-01-25T03:37:35.397Z,100382.41
2023-01-25T03:38:38.340Z,100379.75
2023-01-25T03:39:41.493Z,100376.96
2023-01-25T03:40:44.039Z,100376.73
2023-01-25T03:41:46.659Z,100373.50
2023-01-25T03:42:48.808Z,100373.89
2023-01-25T03:43:51.003Z,100373.73
2023-01-25T03:44:53.178Z,100372.08
2023-01-25T03:46:01.079Z,100371.17
2023-01-25T03:47:03.749Z,100367.34
2023-01-25T03:48:06.217Z,100369.96
2023-01-25T03:49:09.538Z,100368.23
2023-01-25T03:50:11.960Z,100367.64
2023-01-25T03:51:14.274Z,100364.02
2023-01-25T03:52:16.420Z,100364.92
2023-01-25T03:53:29.986Z,100367.73
2023-01-25T03:54:38.150Z,100365.38
2023-01-25T03:55:41.948Z,100363.40
2023-01-25T03:56:45.315Z,100361.68
2023-01-25T03:57:53.938Z,100363.14
2023-01-25T03:58:55.901Z,100361.43
2023-01-25T03:59:58.140Z,100360.21
2023-01-25T04:01:02.214Z,100359.02
2023-01-25T04:02:04.514Z,100357.55
2023-01-25T04:03:06.611Z,100359.79
2023-01-25T04:04:11.108Z,100360.30
2023-01-25T04:05:17.370Z,100361.85
2023-01-25T04:06:19.535Z,100360.29
2023-01-25T04:07:21.466Z,100355.38
2023-01-25T04:08:24.933Z,100356.81
2023-01-25T04:09:27.509Z,100353.13
2023-01-25T04:10:30.862Z,100349.05
2023-01-25T04:11:32.946Z,100353.61
2023-01-25T04:12:34.951Z,100350.17
2023-01-25T04:13:38.883Z,100351.83
2023-01-25T04:14:44.940Z,100349.64
2023-01-25T04:15:55.665Z,100348.06
2023-01-25T04:17:20.096Z,100342.02
2023-01-25T04:18:28.534Z,100339.92
2023-01-25T04:19:30.943Z,100341.81
2023-01-25T04:20:34.787Z,100343.66
2023-01-25T04:21:36.715Z,100342.21
2023-01-25T04:22:38.562Z,100344.73
2023-01-25T04:23:41.282Z,100340.45
2023-01-25T04:24:44.106Z,100339.31
2023-01-25T04:26:01.430Z,100338.55
2023-01-25T04:27:05.505Z,100338.14
2023-01-25T04:28:11.040Z,100341.52
2023-01-25T04:29:13.071Z,100336.61
2023-01-25T04:30:15.466Z,100340.80
2023-01-25T04:31:18.707Z,100342.17
2023-01-25T04:32:21.089Z,100336.41
2023-01-25T04:33:24.676Z,100342.29
2023-01-25T04:34:27.121Z,100343.16
2023-01-25T04:35:29.300Z,100344.69
2023-01-25T04:36:31.238Z,100342.59
2023-01-25T04:37:33.381Z,100346.45
2023-01-25T04:38:35.281Z,100344.99
2023-01-25T04:39:37.153Z,100344.15
2023-01-25T04:40:39.696Z,100346.21
2023-01-25T04:41:43.721Z,100344.98
2023-01-25T04:42:46.464Z,100343.95
2023-01-25T04:43:48.445Z,100342.83
2023-01-25T04:44:50.589Z,100343.20
2023-01-25T04:45:53.259Z,100338.46
2023-01-25T04:46:59.389Z,100338.38
2023-01-25T04:48:04.974Z,100341.77
2023-01-25T04:49:07.932Z,100341.66
2023-01-25T04:50:10.626Z,100344.25
2023-01-25T04:51:14.456Z,100343.16
2023-01-25T04:52:17.140Z,100340.98
2023-01-25T04:53:19.140Z,100343.11
2023-01-25T04:54:21.368Z,100344.02
2023-01-25T04:55:23.272Z,100343.27
2023-01-25T04:56:26.068Z,100344.60
2023-01-25T04:57:30.148Z,100341.14
2023-01-25T04:58:32.694Z,100336.15
2023-01-25T04:59:34.848Z,100334.35
2023-01-25T05:00:36.950Z,100332.33
2023-01-25T05:01:39.004Z,100327.31
2023-01-25T05:02:42.338Z,100327.23
2023-01-25T05:03:44.217Z,100327.91
2023-01-25T05:04:58.906Z,100327.48
2023-01-25T05:06:00.821Z,100327.63
2023-01-25T05:07:03.304Z,100323.12
2023-01-25T05:08:06.608Z,100325.06
2023-01-25T05:09:10.313Z,100327.81
2023-01-25T05:10:13.101Z,100326.42
2023-01-25T05:11:22.010Z,100326.60
2023-01-25T05:12:35.740Z,100328.33
2023-01-25T05:13:40.471Z,100328.98
2023-01-25T05:14:48.217Z,100325.94
2023-01-25T05:15:50.366Z,100327.11
2023-01-25T05:16:52.599Z,100325.52
2023-01-25T05:17:54.637Z,100323.31
2023-01-25T05:18:56.654Z,100323.88
2023-01-25T05:20:06.368Z,100317.79
2023-01-25T05:21:28.614Z,100315.27
2023-01-25T05:22:31.233Z,100312.72
2023-01-25T05:23:33.161Z,100309.31
2023-01-25T05:24:36.471Z,100312.05
2023-01-25T05:26:39.025Z,100310.17
2023-01-25T05:27:43.005Z,100308.39
2023-01-25T05:29:41.299Z,100303.83
2023-01-25T05:30:43.909Z,100305.20
2023-01-25T05:31:58.365Z,100302.94
2023-01-25T05:33:00.354Z,100298.95
2023-01-25T05:34:02.401Z,100300.30
2023-01-25T05:35:05.171Z,100297.84
2023-01-25T05:36:07.503Z,100297.69
2023-01-25T05:37:13.637Z,100299.58
2023-01-25T05:38:17.368Z,100302.16
2023-01-25T05:39:19.356Z,100303.17
2023-01-25T05:40:22.436Z,100301.95
2023-01-25T05:41:25.328Z,100301.63
2023-01-25T05:42:28.245Z,100302.45
2023-01-25T05:43:30.218Z,100299.52
2023-01-25T05:44:32.577Z,100299.71
2023-01-25T05:45:35.004Z,100298.85
2023-01-25T05:46:37.749Z,100295.58
2023-01-25T05:47:39.767Z,100287.83
2023-01-25T05:48:41.772Z,100287.09
2023-01-25T05:49:44.635Z,100280.13
2023-01-25T05:50:51.343Z,100278.80
2023-01-25T05:51:56.146Z,100280.05
2023-01-25T05:52:58.157Z,100282.75
2023-01-25T05:54:00.151Z,100280.73
2023-01-25T05:55:03.173Z,100275.73
2023-01-25T05:56:07.618Z,100273.35
2023-01-25T05:57:09.975Z,100268.23
2023-01-25T05:58:12.569Z,100269.06
2023-01-25T05:59:14.648Z,100269.54
2023-01-25T06:00:17.231Z,100265.63
2023-01-25T06:01:19.272Z,100269.21
2023-01-25T06:02:23.078Z,100263.21
2023-01-25T06:03:25.291Z,100262.77
2023-01-25T06:04:27.350Z,100259.92
2023-01-25T06:05:29.348Z,100261.91
2023-01-25T06:06:31.533Z,100263.13
2023-01-25T06:07:36.469Z,100265.27
2023-01-25T06:08:38.479Z,100272.20
2023-01-25T06:09:41.039Z,100279.20
2023-01-25T06:10:43.096Z,100280.16
2023-01-25T06:11:46.135Z,100286.85
2023-01-25T06:12:48.726Z,100286.13
2023-01-25T06:13:51.396Z,100281.02
2023-01-25T06:14:54.018Z,100277.79
2023-01-25T06:15:57.317Z,100275.51
2023-01-25T06:17:17.742Z,100281.79
2023-01-25T06:18:39.637Z,100291.61
2023-01-25T06:19:47.967Z,100294.45
2023-01-25T06:21:37.227Z,100292.92
2023-01-25T06:22:39.286Z,100289.20
2023-01-25T06:23:42.068Z,100291.98
2023-01-25T06:24:45.753Z,100292.13
2023-01-25T06:25:47.755Z,100297.33
2023-01-25T06:26:49.642Z,100298.19
2023-01-25T06:27:51.425Z,100296.55
2023-01-25T06:28:53.576Z,100292.33
2023-01-25T06:29:55.842Z,100289.94
2023-01-25T06:31:05.666Z,100290.43
2023-01-25T06:32:07.665Z,100290.27
2023-01-25T06:33:09.780Z,100286.35
2023-01-25T06:34:11.849Z,100282.66
2023-01-25T06:35:14.055Z,100287.67
2023-01-25T06:36:18.817Z,100288.23
2023-01-25T06:37:23.142Z,100291.12
2023-01-25T06:38:25.183Z,100289.34
2023-01-25T06:39:27.104Z,100283.76
2023-01-25T06:40:29.514Z,100282.95
2023-01-25T06:41:31.376Z,100281.05
2023-01-25T06:42:33.438Z,100277.85
2023-01-25T06:43:35.630Z,100272.27
2023-01-25T06:44:37.615Z,100267.23
2023-01-25T06:45:39.689Z,100265.50
2023-01-25T06:46:42.109Z,100263.48
2023-01-25T06:47:44.331Z,100269.36
2023-01-25T06:48:46.155Z,100271.52
2023-01-25T06:49:48.372Z,100269.05
2023-01-25T06:50:58.654Z,100273.98
2023-01-25T06:52:01.485Z,100271.55
2023-01-25T06:53:03.464Z,100271.23
2023-01-25T06:54:05.407Z,100270.16
2023-01-25T06:55:10.336Z,100278.56
2023-01-25T06:56:14.056Z,100278.94
2023-01-25T06:57:16.280Z,100273.61
2023-01-25T06:58:18.456Z,100272.02
2023-01-25T06:59:21.249Z,100273.04
2023-01-25T07:00:23.952Z,100271.95
2023-01-25T07:01:30.509Z,100271.80
2023-01-25T07:02:32.959Z,100268.48
2023-01-25T07:03:35.587Z,100269.52
2023-01-25T07:04:37.899Z,100272.13
2023-01-25T07:05:40.049Z,100272.34
2023-01-25T07:06:41.867Z,100275.16
2023-01-25T07:07:46.833Z,100272.08
2023-01-25T07:08:49.573Z,100268.38
2023-01-25T07:09:51.518Z,100268.63
2023-01-25T07:10:58.379Z,100268.96
2023-01-25T07:12:02.363Z,100263.06
2023-01-25T07:13:04.684Z,100261.48
2023-01-25T07:14:07.781Z,100253.23
2023-01-25T07:15:10.758Z,100252.94
2023-01-25T07:16:16.739Z,100249.40
2023-01-25T07:17:18.930Z,100248.05
2023-01-25T07:18:21.184Z,100250.77
2023-01-25T07:19:23.489Z,100247.91
2023-01-25T07:20:26.029Z,100243.44
2023-01-25T07:21:28.208Z,100243.15
2023-01-25T07:22:30.219Z,100243.91
2023-01-25T07:23:34.736Z,100242.90
2023-01-25T07:24:37.224Z,100238.35
2023-01-25T07:25:47.641Z,100236.07
2023-01-25T07:26:50.053Z,100233.36
2023-01-25T07:27:52.356Z,100235.74
2023-01-25T07:28:57.242Z,100239.42
2023-01-25T07:29:59.489Z,100238.68
2023-01-25T07:31:06.413Z,100234.60
2023-01-25T07:32:09.617Z,100232.33
2023-01-25T07:33:12.302Z,100230.90
2023-01-25T07:34:14.338Z,100229.89
2023-01-25T07:35:16.895Z,100236.02
2023-01-25T07:36:19.383Z,100240.86
2023-01-25T07:37:21.440Z,100238.55
2023-01-25T07:38:23.417Z,100240.58
2023-01-25T07:39:25.514Z,100241.52
2023-01-25T07:40:28.002Z,100242.61
2023-01-25T07:41:30.265Z,100240.36
2023-01-25T07:42:32.409Z,100240.49
2023-01-25T07:43:48.105Z,100243.09
2023-01-25T07:44:57.051Z,100240.11
2023-01-25T07:46:04.144Z,100240.23
2023-01-25T07:47:06.157Z,100239.77
2023-01-25T07:48:10.951Z,100236.91
2023-01-25T07:49:12.831Z,100239.46
2023-01-25T07:50:15.069Z,100245.14
2023-01-25T07:51:23.214Z,100244.58
2023-01-25T07:52:25.517Z,100246.47
2023-01-25T07:53:27.493Z,100243.84
2023-01-25T07:54:30.037Z,100237.36
2023-01-25T07:55:31.929Z,100235.70
2023-01-25T07:56:41.067Z,100239.48
2023-01-25T07:57:43.111Z,100236.73
2023-01-25T07:58:45.922Z,100233.92
2023-01-25T07:59:47.812Z,100233.49
2023-01-25T08:00:49.637Z,100229.58
2023-01-25T08:01:51.628Z,100228.64
2023-01-25T08:02:53.846Z,100224.11
2023-01-25T08:03:57.203Z,100222.06
2023-01-25T08:04:59.375Z,100217.11
2023-01-25T08:06:01.449Z,100216.95
2023-01-25T08:07:04.521Z,100219.78
2023-01-25T08:08:06.727Z,100216.04
2023-01-25T08:09:14.248Z,100219.02
2023-01-25T08:10:16.770Z,100214.52
2023-01-25T08:11:23.199Z,100214.15
2023-01-25T08:12:28.111Z,100211.99
2023-01-25T08:13:30.112Z,100209.70
2023-01-25T08:14:32.100Z,100207.02
2023-01-25T08:15:34.190Z,100205.02
2023-01-25T08:16:35.984Z,100204.89
2023-01-25T08:17:37.867Z,100203.66
2023-01-25T08:18:40.031Z,100202.30
2023-01-25T08:19:41.863Z,100200.89
2023-01-25T08:20:43.640Z,100198.73
2023-01-25T08:21:45.584Z,100196.64
2023-01-25T08:22:47.745Z,100195.70
2023-01-25T08:23:50.152Z,100194.81
2023-01-25T08:24:52.154Z,100193.68
2023-01-25T08:25:54.065Z,100191.77
2023-01-25T08:26:55.975Z,100190.31
2023-01-25T08:27:57.872Z,100188.46
2023-01-25T08:29:00.512Z,100183.42
2023-01-25T08:30:02.764Z,100181.95
2023-01-25T08:31:10.070Z,100182.84
2023-01-25T08:32:12.229Z,100184.20
2023-01-25T08:33:14.144Z,100183.00
2023-01-25T08:34:16.394Z,100183.04
2023-01-25T08:35:18.231Z,100185.66
2023-01-25T08:36:24.144Z,100186.60
2023-01-25T08:37:29.656Z,100178.61
2023-01-25T08:38:31.905Z,100176.42
2023-01-25T08:39:34.304Z,100171.08
2023-01-25T08:40:38.361Z,100170.60
2023-01-25T08:41:42.278Z,100164.40
2023-01-25T08:42:44.216Z,100165.27
2023-01-25T08:43:47.456Z,100164.16
2023-01-25T08:44:49.583Z,100162.96
2023-01-25T08:45:58.053Z,100162.94
2023-01-25T08:47:00.001Z,100159.09
2023-01-25T08:48:01.993Z,100160.30
2023-01-25T08:49:04.933Z,100161.44
2023-01-25T08:50:08.778Z,100158.60
2023-01-25T08:51:13.889Z,100158.50
2023-01-25T08:52:16.346Z,100157.02
2023-01-25T08:53:19.051Z,100156.52
2023-01-25T08:54:20.927Z,100156.33
2023-01-25T08:55:22.881Z,100156.36
2023-01-25T08:56:24.827Z,100146.95
2023-01-25T08:57:26.905Z,100146.02
2023-01-25T08:58:29.723Z,100142.15
2023-01-25T08:59:31.843Z,100144.27
2023-01-25T09:00:36.068Z,100147.98
2023-01-25T09:01:37.907Z,100151.07
2023-01-25T09:02:39.852Z,100155.01
2023-01-25T09:03:44.815Z,100156.17
2023-01-25T09:04:46.867Z,100160.22
2023-01-25T09:05:49.058Z,100161.52
2023-01-25T09:06:50.863Z,100164.84
2023-01-25T09:07:52.730Z,100164.70
2023-01-25T09:08:54.536Z,100166.69
2023-01-25T09:09:56.400Z,100166.09
2023-01-25T09:11:03.239Z,100168.88
2023-01-25T09:12:06.372Z,100175.11
2023-01-25T09:13:08.880Z,100179.13
2023-01-25T09:14:11.058Z,100177.16
2023-01-25T09:15:12.979Z,100178.75
2023-01-25T09:16:30.806Z,100175.23
2023-01-25T09:17:32.757Z,100178.33
2023-01-25T09:18:36.582Z,100175.89
2023-01-25T09:19:38.476Z,100178.21
2023-01-25T09:20:40.582Z,100179.71
2023-01-25T09:21:42.597Z,100179.63
2023-01-25T09:22:44.525Z,100179.88
2023-01-25T09:24:05.076Z,100181.77
2023-01-25T09:25:09.347Z,100178.08
2023-01-25T09:26:12.486Z,100179.73
2023-01-25T09:27:14.402Z,100178.35
2023-01-25T09:28:16.739Z,100175.19
2023-01-25T09:29:18.760Z,100172.45
2023-01-25T09:30:23.318Z,100175.41
2023-01-25T09:31:29.548Z,100173.02
2023-01-25T09:32:34.512Z,100170.77
2023-01-25T09:33:38.330Z,100164.14
2023-01-25T09:34:40.092Z,100159.81
2023-01-25T09:35:48.173Z,100158.23
2023-01-25T09:36:49.966Z,100158.99
2023-01-25T09:37:52.916Z,100158.46
2023-01-25T09:38:55.865Z,100160.58
2023-01-25T09:39:57.686Z,100158.90
2023-01-25T09:41:22.049Z,100155.28
2023-01-25T09:42:48.947Z,100154.65
2023-01-25T09:44:25.368Z,100151.40
2023-01-25T09:45:36.496Z,100149.91
2023-01-25T09:46:41.241Z,100150.88
2023-01-25T09:47:57.809Z,100148.06
2023-01-25T09:49:30.720Z,100141.77
2023-01-25T09:50:38.423Z,100138.46
2023-01-25T09:51:49.325Z,100138.61
2023-01-25T09:53:07.122Z,100137.61
2023-01-25T09:54:11.104Z,100131.77
2023-01-25T09:55:17.433Z,100132.13
2023-01-25T09:56:22.406Z,100127.45
2023-01-25T09:57:33.504Z,100127.15
2023-01-25T09:58:43.244Z,100122.34
2023-01-25T09:59:50.152Z,100127.59
2023-01-25T10:01:38.180Z,100122.80
2023-01-25T10:02:54.529Z,100121.13
2023-01-25T10:04:02.807Z,100118.41
2023-01-25T10:05:18.045Z,100118.35
2023-01-25T10:06:26.322Z,100117.95
2023-01-25T10:07:47.813Z,100120.60
2023-01-25T10:09:08.389Z,100121.47
2023-01-25T10:10:41.538Z,100121.36
2023-01-25T10:11:45.389Z,100122.11
2023-01-25T10:12:47.458Z,100115.09
2023-01-25T10:13:49.549Z,100118.85
2023-01-25T10:14:52.597Z,100115.11
2023-01-25T10:16:03.071Z,100114.77
2023-01-25T10:17:39.530Z,100114.02
2023-01-25T10:19:07.643Z,100112.67
2023-01-25T10:20:31.449Z,100109.16
2023-01-25T10:21:45.961Z,100108.83
2023-01-25T10:23:19.760Z,100100.63
2023-01-25T10:24:46.570Z,100101.00
2023-01-25T10:26:07.340Z,100097.13
2023-01-25T10:27:43.707Z,100094.94
2023-01-25T10:29:23.535Z,100095.50
2023-01-25T10:30:42.684Z,100095.88
2023-01-25T10:31:53.639Z,100095.11
2023-01-25T10:33:02.189Z,100094.36
2023-01-25T10:34:19.257Z,100091.07
2023-01-25T10:35:35.460Z,100087.55
2023-01-25T10:36:39.229Z,100085.63
2023-01-25T10:37:42.064Z,100087.41
2023-01-25T10:38:47.227Z,100087.12
2023-01-25T10:40:01.326Z,100087.91
2023-01-25T10:41:32.854Z,100088.64
2023-01-25T10:42:43.506Z,100085.82
2023-01-25T10:43:45.422Z,100085.42
2023-01-25T10:44:47.474Z,100086.95
2023-01-25T10:45:50.824Z,100088.85
2023-01-25T10:47:17.664Z,100087.52
2023-01-25T10:48:24.195Z,100087.48
2023-01-25T10:49:47.443Z,100086.86
2023-01-25T10:50:53.224Z,100089.52
2023-01-25T10:51:56.037Z,100086.29
2023-01-25T10:52:59.083Z,100080.31
2023-01-25T10:54:04.250Z,100076.69
2023-01-25T10:55:26.397Z,100070.89
2023-01-25T10:56:30.403Z,100070.61
2023-01-25T10:57:34.854Z,100070.42
2023-01-25T10:58:38.221Z,100071.69
2023-01-25T10:59:40.429Z,100068.99
2023-01-25T11:00:43.309Z,100068.59
2023-01-25T11:01:45.211Z,100060.52
2023-01-25T11:02:48.283Z,100061.53
2023-01-25T11:03:50.377Z,100058.83
2023-01-25T11:04:52.287Z,100055.84
2023-01-25T11:05:56.820Z,100053.26
2023-01-25T11:07:00.459Z,100048.63
2023-01-25T11:08:31.971Z,100049.80
2023-01-25T11:09:37.612Z,100045.18
2023-01-25T11:10:46.352Z,100042.97
2023-01-25T11:11:56.560Z,100039.98
2023-01-25T11:13:20.869Z,100039.64
2023-01-25T11:14:28.979Z,100030.25
2023-01-25T11:15:31.109Z,100030.48
2023-01-25T11:16:38.810Z,100029.70
2023-01-25T11:17:40.967Z,100029.90
2023-01-25T11:18:52.326Z,100029.11
2023-01-25T11:20:20.017Z,100027.14
2023-01-25T11:21:25.842Z,100026.28
2023-01-25T11:22:28.759Z,100021.47
2023-01-25T11:23:34.585Z,100020.39
2023-01-25T11:24:37.565Z,100018.30
2023-01-25T11:25:39.685Z,100015.61
2023-01-25T11:26:41.970Z,100015.12
2023-01-25T11:27:43.920Z,100014.52
2023-01-25T11:28:50.448Z,100014.38
2023-01-25T11:30:20.922Z,100011.65
2023-01-25T11:31:24.170Z,100008.03
2023-01-25T11:32:26.240Z,100008.92
2023-01-25T11:33:30.429Z,100005.88
2023-01-25T11:34:32.628Z,100007.94
2023-01-25T11:35:46.167Z,100011.94
2023-01-25T11:36:58.907Z,100008.68
2023-01-25T11:38:11.489Z,100005.77
2023-01-25T11:39:16.237Z,100003.70
2023-01-25T11:40:33.337Z,100004.27
2023-01-25T11:41:59.293Z,100004.52
2023-01-25T11:43:24.828Z,100001.19
2023-01-25T11:44:41.753Z,99998.96
2023-01-25T11:46:01.959Z,99999.96
2023-01-25T11:47:13.946Z,99998.20
2023-01-25T11:48:43.709Z,100000.16
2023-01-25T11:50:24.027Z,99996.89
2023-01-25T11:51:59.767Z,99993.36
2023-01-25T11:53:34.657Z,99990.73
2023-01-25T11:55:08.372Z,99987.98
2023-01-25T11:56:18.875Z,99983.91
2023-01-25T11:57:33.277Z,99980.42
2023-01-25T11:59:06.309Z,99975.80
2023-01-25T12:00:55.195Z,99972.30
2023-01-25T12:02:20.018Z,99966.39
2023-01-25T12:04:00.381Z,99966.35
2023-01-25T12:05:16.283Z,99963.46
2023-01-25T12:06:43.389Z,99962.48
2023-01-25T12:08:04.244Z,99965.27
2023-01-25T12:09:44.196Z,99960.44
2023-01-25T12:11:04.455Z,99962.19
2023-01-25T12:12:37.266Z,99958.47
2023-01-25T12:14:03.177Z,99954.13
2023-01-25T12:15:45.615Z,99951.07
2023-01-25T12:17:26.060Z,99941.88
2023-01-25T12:18:46.672Z,99942.34
2023-01-25T12:20:10.127Z,99942.02
2023-01-25T12:21:34.735Z,99936.83
2023-01-25T12:22:58.234Z,99933.52
2023-01-25T12:24:26.077Z,99932.73
2023-01-25T12:25:58.149Z,99927.09
2023-01-25T12:27:26.619Z,99927.06
2023-01-25T12:28:37.617Z,99928.48
2023-01-25T12:29:48.240Z,99922.88
2023-01-25T12:31:02.082Z,99921.77
2023-01-25T12:32:38.546Z,99913.69
2023-01-25T12:34:03.521Z,99913.33
2023-01-25T12:35:34.689Z,99908.81
2023-01-25T12:36:48.716Z,99904.41
2023-01-25T12:37:56.994Z,99899.73
2023-01-25T12:39:07.251Z,99902.29
2023-01-25T12:40:51.374Z,99903.26
2023-01-25T12:42:13.237Z,99902.43
2023-01-25T12:43:36.028Z,99902.37
2023-01-25T12:44:50.049Z,99901.14
2023-01-25T12:45:55.154Z,99895.25
2023-01-25T12:47:30.142Z,99894.59